createdAt,value
2018-08-11T00:00:46.493Z,13.05
2018-08-11T00:03:22.400Z,12.87
2018-08-11T00:05:58.311Z,12.95
2018-08-11T00:08:34.092Z,13.08
2018-08-11T00:11:10.402Z,13.41
2018-08-11T00:13:46.160Z,13.69
2018-08-11T00:16:22.639Z,13.65
2018-08-11T00:18:59.001Z,13.40
2018-08-11T00:21:34.901Z,13.41
2018-08-11T00:24:10.761Z,13.37
2018-08-11T00:26:46.414Z,13.03
2018-08-11T00:29:22.293Z,12.76
2018-08-11T00:31:58.321Z,13.00
2018-08-11T00:34:34.163Z,12.74
2018-08-11T00:37:10.049Z,12.73
2018-08-11T00:39:46.029Z,12.46
2018-08-11T00:42:21.859Z,12.37
2018-08-11T00:44:57.665Z,12.37
2018-08-11T00:47:33.406Z,12.79
2018-08-11T00:50:20.456Z,12.81
2018-08-11T00:52:57.081Z,12.97
2018-08-11T00:55:35.609Z,13.11
2018-08-11T00:58:11.509Z,13.09
2018-08-11T01:00:47.619Z,13.19
2018-08-11T01:03:24.344Z,13.38
2018-08-11T01:06:00.174Z,13.27
2018-08-11T01:08:36.024Z,13.05
2018-08-11T01:11:12.003Z,13.10
2018-08-11T01:13:47.668Z,13.09
2018-08-11T01:16:23.545Z,13.07
2018-08-11T01:18:59.317Z,12.95
2018-08-11T01:21:35.679Z,13.00
2018-08-11T01:24:11.604Z,13.06
2018-08-11T01:26:47.795Z,13.11
2018-08-11T01:29:24.522Z,13.17
2018-08-11T01:32:00.505Z,13.05
2018-08-11T01:34:36.458Z,13.01
2018-08-11T01:37:12.475Z,12.88
2018-08-11T01:39:48.285Z,12.83
2018-08-11T01:42:24.229Z,12.98
2018-08-11T01:44:59.992Z,12.93
2018-08-11T01:47:35.885Z,13.09
2018-08-11T01:50:12.914Z,13.20
2018-08-11T01:52:49.186Z,13.27
2018-08-11T01:55:24.779Z,13.38
2018-08-11T01:58:01.035Z,13.12
2018-08-11T02:00:36.746Z,12.93
2018-08-11T02:03:12.504Z,12.94
2018-08-11T02:05:48.270Z,12.94
2018-08-11T02:08:24.152Z,13.07
2018-08-11T02:10:59.944Z,13.06
2018-08-11T02:13:35.672Z,13.21
2018-08-11T02:16:11.552Z,13.56
2018-08-11T02:18:47.897Z,14.02
2018-08-11T02:21:23.478Z,14.11
2018-08-11T02:23:59.355Z,14.18
2018-08-11T02:26:35.235Z,14.42
2018-08-11T02:29:11.107Z,14.58
2018-08-11T02:31:46.852Z,14.63
2018-08-11T02:34:22.747Z,14.74
2018-08-11T02:36:58.728Z,14.75
2018-08-11T02:39:34.813Z,14.79
2018-08-11T02:42:10.973Z,14.76
2018-08-11T02:44:46.826Z,14.58
2018-08-11T02:47:22.978Z,14.21
2018-08-11T02:49:58.819Z,13.86
2018-08-11T02:52:34.515Z,13.78
2018-08-11T02:55:10.828Z,13.74
2018-08-11T02:57:46.469Z,13.76
2018-08-11T03:00:22.401Z,13.75
2018-08-11T03:02:58.116Z,14.04
2018-08-11T03:05:33.904Z,14.12
2018-08-11T03:08:09.615Z,14.04
2018-08-11T03:10:48.931Z,14.01
2018-08-11T03:13:25.829Z,13.92
2018-08-11T03:16:01.554Z,14.02
2018-08-11T03:18:37.290Z,14.20
2018-08-11T03:21:13.148Z,14.19
2018-08-11T03:23:48.903Z,14.07
2018-08-11T03:26:24.700Z,13.93
2018-08-11T03:29:00.398Z,14.11
2018-08-11T03:31:36.640Z,13.93
2018-08-11T03:34:12.310Z,14.02
2018-08-11T03:36:48.553Z,14.05
2018-08-11T03:39:24.311Z,14.27
2018-08-11T03:42:00.237Z,14.14
2018-08-11T03:44:35.984Z,14.26
2018-08-11T03:47:11.838Z,14.41
2018-08-11T03:49:47.692Z,14.57
2018-08-11T03:52:23.484Z,14.45
2018-08-11T03:54:59.223Z,14.36
2018-08-11T03:57:35.120Z,14.69
2018-08-11T04:00:12.574Z,14.90
2018-08-11T04:02:48.325Z,15.08
2018-08-11T04:05:24.170Z,15.24
2018-08-11T04:08:00.033Z,15.30
2018-08-11T04:10:35.914Z,15.16
2018-08-11T04:13:11.682Z,15.20
2018-08-11T04:15:47.398Z,15.01
2018-08-11T04:18:23.157Z,15.12
2018-08-11T04:20:58.998Z,15.53
2018-08-11T04:23:34.924Z,15.77
2018-08-11T04:26:10.786Z,15.94
2018-08-11T04:28:46.552Z,16.05
2018-08-11T04:31:22.253Z,15.91
2018-08-11T04:34:03.642Z,15.98
2018-08-11T04:36:39.433Z,16.01
2018-08-11T04:39:15.060Z,16.14
2018-08-11T04:41:50.920Z,15.73
2018-08-11T04:44:26.821Z,15.78
2018-08-11T04:47:02.596Z,15.63
2018-08-11T04:49:38.525Z,15.55
2018-08-11T04:52:14.367Z,15.52
2018-08-11T04:54:50.726Z,15.57
2018-08-11T04:57:26.777Z,15.91
2018-08-11T05:00:02.661Z,16.21
2018-08-11T05:02:38.456Z,16.38
2018-08-11T05:05:16.265Z,16.65
2018-08-11T05:07:52.014Z,16.80
2018-08-11T05:10:27.867Z,17.16
2018-08-11T05:13:03.661Z,16.86
2018-08-11T05:15:39.547Z,16.90
2018-08-11T05:18:15.354Z,16.93
2018-08-11T05:20:51.380Z,17.52
2018-08-11T05:23:27.236Z,18.04
2018-08-11T05:26:03.061Z,18.56
2018-08-11T05:28:38.841Z,18.95
2018-08-11T05:31:14.632Z,18.59
2018-08-11T05:33:50.450Z,18.98
2018-08-11T05:36:26.512Z,19.13
2018-08-11T05:39:02.348Z,19.30
2018-08-11T05:41:38.682Z,19.54
2018-08-11T05:44:14.697Z,19.86
2018-08-11T05:46:50.670Z,19.66
2018-08-11T05:49:26.481Z,19.74
2018-08-11T05:52:02.312Z,20.20
2018-08-11T05:54:38.869Z,20.19
2018-08-11T05:57:14.804Z,20.49
2018-08-11T05:59:50.521Z,20.96
2018-08-11T06:02:26.491Z,21.19
2018-08-11T06:05:02.431Z,21.00
2018-08-11T06:07:33.402Z,21.36
2018-08-11T06:10:05.066Z,21.06
2018-08-11T06:12:35.879Z,20.77
2018-08-11T06:15:07.111Z,21.17
2018-08-11T06:17:38.047Z,21.04
2018-08-11T06:20:09.938Z,21.55
2018-08-11T06:22:40.833Z,21.70
2018-08-11T06:25:12.726Z,21.74
2018-08-11T06:27:43.591Z,22.06
2018-08-11T06:30:16.407Z,21.98
2018-08-11T06:32:47.361Z,22.06
2018-08-11T06:35:18.167Z,22.05
2018-08-11T06:37:49.866Z,21.77
2018-08-11T06:40:20.657Z,21.71
2018-08-11T06:42:51.475Z,21.96
2018-08-11T06:45:22.817Z,22.38
2018-08-11T06:47:53.657Z,22.53
2018-08-11T06:50:24.421Z,22.93
2018-08-11T06:52:55.299Z,22.16
2018-08-11T06:55:26.106Z,22.40
2018-08-11T06:57:57.229Z,22.37
2018-08-11T07:00:27.990Z,22.28
2018-08-11T07:03:02.851Z,22.73
2018-08-11T07:05:38.130Z,22.84
2018-08-11T07:08:09.933Z,23.19
2018-08-11T07:10:40.687Z,23.22
2018-08-11T07:13:11.536Z,22.99
2018-08-11T07:15:42.906Z,22.65
2018-08-11T07:18:13.729Z,23.12
2018-08-11T07:20:44.505Z,23.07
2018-08-11T07:23:15.354Z,22.89
2018-08-11T07:25:46.146Z,23.30
2018-08-11T07:28:17.011Z,23.32
2018-08-11T07:30:47.772Z,23.40
2018-08-11T07:33:18.795Z,23.58
2018-08-11T07:35:49.589Z,23.70
2018-08-11T07:38:20.498Z,24.34
2018-08-11T07:40:51.490Z,24.14
2018-08-11T07:43:22.284Z,24.22
2018-08-11T07:45:56.350Z,24.15
2018-08-11T07:48:27.132Z,24.67
2018-08-11T07:50:57.905Z,24.70
2018-08-11T07:53:28.764Z,24.95
2018-08-11T07:55:59.535Z,25.24
2018-08-11T07:58:30.570Z,25.07
2018-08-11T08:01:01.349Z,24.65
2018-08-11T08:03:32.177Z,25.08
2018-08-11T08:06:02.921Z,25.13
2018-08-11T08:08:34.682Z,25.26
2018-08-11T08:11:05.855Z,25.44
2018-08-11T08:13:36.691Z,25.45
2018-08-11T08:16:07.723Z,24.89
2018-08-11T08:18:39.347Z,25.04
2018-08-11T08:21:10.494Z,25.49
2018-08-11T08:23:41.369Z,25.64
2018-08-11T08:26:12.173Z,25.65
2018-08-11T08:28:43.183Z,25.90
2018-08-11T08:31:16.419Z,25.13
2018-08-11T08:33:47.244Z,25.33
2018-08-11T08:36:18.021Z,25.73
2018-08-11T08:38:48.877Z,25.90
2018-08-11T08:41:19.685Z,25.96
2018-08-11T08:43:50.491Z,26.28
2018-08-11T08:46:21.315Z,26.66
2018-08-11T08:48:52.213Z,26.84
2018-08-11T08:51:22.993Z,27.07
2018-08-11T08:53:53.885Z,27.06
2018-08-11T08:56:24.634Z,27.37
2018-08-11T08:58:55.443Z,27.40
2018-08-11T09:01:26.223Z,27.56
2018-08-11T09:03:57.021Z,27.73
2018-08-11T09:06:28.391Z,27.53
2018-08-11T09:09:00.397Z,26.70
2018-08-11T09:11:32.049Z,26.95
2018-08-11T09:14:02.857Z,27.07
2018-08-11T09:16:33.659Z,27.19
2018-08-11T09:19:04.635Z,27.63
2018-08-11T09:21:35.427Z,27.70
2018-08-11T09:24:06.276Z,27.76
2018-08-11T09:26:37.046Z,27.67
2018-08-11T09:29:07.902Z,27.10
2018-08-11T09:31:42.252Z,27.26
2018-08-11T09:34:13.048Z,27.83
2018-08-11T09:36:43.834Z,28.22
2018-08-11T09:39:14.714Z,28.58
2018-08-11T09:41:45.511Z,28.46
2018-08-11T09:44:16.355Z,28.19
2018-08-11T09:46:47.512Z,28.11
2018-08-11T09:49:18.316Z,28.21
2018-08-11T09:51:49.148Z,28.33
2018-08-11T09:54:19.991Z,28.22
2018-08-11T09:56:50.884Z,28.31
2018-08-11T09:59:21.719Z,28.34
2018-08-11T10:01:57.630Z,28.21
2018-08-11T10:04:28.881Z,27.51
2018-08-11T10:06:59.632Z,28.07
2018-08-11T10:09:30.563Z,27.86
2018-08-11T10:12:01.327Z,28.07
2018-08-11T10:14:32.181Z,27.95
2018-08-11T10:17:02.968Z,27.95
2018-08-11T10:19:33.783Z,28.17
2018-08-11T10:22:04.569Z,28.34
2018-08-11T10:24:35.629Z,28.46
2018-08-11T10:27:06.413Z,28.65
2018-08-11T10:29:37.200Z,28.77
2018-08-11T10:32:08.421Z,28.45
2018-08-11T10:34:42.122Z,28.28
2018-08-11T10:37:12.868Z,28.75
2018-08-11T10:39:43.840Z,29.08
2018-08-11T10:42:15.380Z,29.29
2018-08-11T10:44:46.190Z,29.52
2018-08-11T10:47:16.967Z,29.75
2018-08-11T10:49:47.798Z,29.89
2018-08-11T10:52:18.730Z,30.40
2018-08-11T10:54:49.744Z,30.80
2018-08-11T10:57:20.496Z,30.69
2018-08-11T10:59:54.166Z,31.01
2018-08-11T11:02:24.905Z,31.06
2018-08-11T11:04:56.684Z,31.19
2018-08-11T11:07:27.456Z,31.24
2018-08-11T11:09:58.385Z,31.01
2018-08-11T11:12:29.135Z,31.68
2018-08-11T11:14:59.928Z,31.92
2018-08-11T11:17:30.827Z,31.87
2018-08-11T11:20:01.841Z,31.30
2018-08-11T11:22:32.590Z,31.65
2018-08-11T11:25:06.643Z,31.11
2018-08-11T11:27:37.675Z,31.55
2018-08-11T11:30:08.669Z,32.02
2018-08-11T11:32:39.471Z,31.03
2018-08-11T11:35:10.313Z,31.17
2018-08-11T11:37:41.078Z,31.01
2018-08-11T11:40:11.944Z,31.66
2018-08-11T11:42:42.738Z,32.06
2018-08-11T11:45:13.744Z,32.12
2018-08-11T11:47:44.508Z,32.14
2018-08-11T11:50:18.507Z,32.15
2018-08-11T11:52:49.287Z,32.07
2018-08-11T11:55:20.503Z,31.92
2018-08-11T11:57:51.277Z,31.70
2018-08-11T12:00:22.084Z,32.22
2018-08-11T12:02:52.856Z,32.54
2018-08-11T12:05:23.665Z,32.77
2018-08-11T12:07:54.437Z,32.87
2018-08-11T12:10:32.749Z,32.55
2018-08-11T12:13:03.527Z,32.57
2018-08-11T12:15:34.343Z,32.61
2018-08-11T12:18:05.825Z,33.10
2018-08-11T12:20:36.995Z,32.52
2018-08-11T12:23:07.783Z,32.92
2018-08-11T12:25:38.642Z,33.13
2018-08-11T12:28:09.404Z,32.86
2018-08-11T12:30:40.236Z,33.23
2018-08-11T12:33:11.001Z,32.89
2018-08-11T12:35:41.841Z,32.89
2018-08-11T12:38:13.703Z,32.06
2018-08-11T12:40:44.569Z,31.83
2018-08-11T12:43:15.361Z,31.87
2018-08-11T12:45:46.423Z,32.56
2018-08-11T12:48:17.750Z,32.38
2018-08-11T12:50:48.574Z,32.25
2018-08-11T12:53:19.352Z,32.12
2018-08-11T12:55:50.226Z,31.94
2018-08-11T12:58:21.001Z,31.82
2018-08-11T13:00:51.800Z,31.72
2018-08-11T13:03:22.592Z,31.63
2018-08-11T13:05:53.380Z,31.53
2018-08-11T13:08:24.155Z,30.60
2018-08-11T13:10:55.090Z,31.40
2018-08-11T13:13:25.862Z,31.67
2018-08-11T13:15:56.717Z,31.99
2018-08-11T13:18:28.862Z,31.88
2018-08-11T13:20:59.672Z,32.03
2018-08-11T13:23:30.494Z,31.90
2018-08-11T13:26:01.360Z,32.12
2018-08-11T13:28:32.112Z,32.82
2018-08-11T13:31:02.930Z,32.75
2018-08-11T13:33:34.100Z,33.08
2018-08-11T13:36:05.745Z,33.10
2018-08-11T13:38:36.535Z,33.39
2018-08-11T13:41:08.837Z,33.52
2018-08-11T13:43:40.328Z,33.39
2018-08-11T13:46:11.144Z,33.09
2018-08-11T13:48:41.912Z,32.58
2018-08-11T13:51:12.705Z,32.76
2018-08-11T13:53:43.836Z,32.59
2018-08-11T13:56:14.716Z,32.77
2018-08-11T13:58:45.499Z,33.29
2018-08-11T14:01:16.297Z,33.46
2018-08-11T14:03:47.197Z,34.14
2018-08-11T14:06:18.049Z,33.71
2018-08-11T14:08:48.905Z,34.19
2018-08-11T14:11:21.426Z,34.74
2018-08-11T14:13:52.218Z,33.92
2018-08-11T14:16:23.042Z,34.81
2018-08-11T14:18:53.886Z,35.55
2018-08-11T14:21:24.687Z,36.15
2018-08-11T14:23:55.433Z,35.91
2018-08-11T14:26:26.304Z,35.87
2018-08-11T14:28:57.136Z,35.87
2018-08-11T14:31:27.973Z,35.65
2018-08-11T14:33:58.738Z,36.15
2018-08-11T14:36:29.769Z,36.71
2018-08-11T14:39:00.591Z,37.67
2018-08-11T14:41:31.385Z,37.55
2018-08-11T14:44:02.218Z,37.77
2018-08-11T14:46:33.063Z,38.03
2018-08-11T14:49:03.869Z,36.78
2018-08-11T14:51:34.681Z,35.93
2018-08-11T14:54:05.840Z,36.91
2018-08-11T14:56:36.640Z,36.86
2018-08-11T14:59:07.430Z,37.57
2018-08-11T15:01:38.234Z,37.46
2018-08-11T15:04:09.026Z,35.41
2018-08-11T15:06:39.824Z,35.81
2018-08-11T15:09:11.665Z,37.14
2018-08-11T15:11:42.596Z,36.58
2018-08-11T15:14:18.937Z,37.36
2018-08-11T15:16:49.874Z,36.58
2018-08-11T15:19:20.650Z,35.51
2018-08-11T15:21:51.523Z,34.49
2018-08-11T15:24:22.283Z,32.57
2018-08-11T15:26:53.294Z,30.72
2018-08-11T15:29:24.165Z,29.66
2018-08-11T15:31:55.184Z,29.13
2018-08-11T15:34:25.982Z,28.24
2018-08-11T15:36:59.005Z,28.04
2018-08-11T15:39:30.021Z,27.82
2018-08-11T15:42:00.941Z,27.49
2018-08-11T15:44:31.765Z,27.38
2018-08-11T15:47:02.766Z,27.27
2018-08-11T15:49:37.230Z,27.25
2018-08-11T15:52:08.368Z,27.19
2018-08-11T15:54:39.167Z,27.03
2018-08-11T15:57:10.755Z,26.73
2018-08-11T15:59:41.562Z,26.75
2018-08-11T16:02:12.761Z,26.61
2018-08-11T16:04:43.548Z,26.56
2018-08-11T16:07:14.437Z,26.22
2018-08-11T16:09:45.681Z,26.24
2018-08-11T16:12:16.631Z,26.16
2018-08-11T16:14:47.429Z,26.03
2018-08-11T16:17:18.561Z,26.10
2018-08-11T16:19:49.380Z,25.81
2018-08-11T16:22:20.257Z,25.73
2018-08-11T16:24:51.012Z,25.64
2018-08-11T16:27:21.985Z,25.57
2018-08-11T16:29:52.771Z,25.33
2018-08-11T16:32:23.562Z,25.32
2018-08-11T16:34:54.341Z,25.18
2018-08-11T16:37:25.205Z,24.94
2018-08-11T16:39:55.989Z,24.96
2018-08-11T16:42:26.812Z,24.92
2018-08-11T16:44:57.588Z,24.96
2018-08-11T16:47:28.388Z,24.93
2018-08-11T16:49:59.155Z,24.97
2018-08-11T16:52:30.042Z,24.87
2018-08-11T16:55:00.903Z,24.79
2018-08-11T16:57:31.748Z,24.64
2018-08-11T17:00:03.309Z,24.63
2018-08-11T17:02:34.090Z,24.59
2018-08-11T17:05:05.311Z,24.47
2018-08-11T17:07:36.846Z,24.27
2018-08-11T17:10:10.845Z,24.01
2018-08-11T17:12:42.091Z,24.08
2018-08-11T17:15:12.881Z,23.59
2018-08-11T17:17:43.712Z,23.58
2018-08-11T17:20:14.894Z,23.37
2018-08-11T17:22:45.785Z,23.09
2018-08-11T17:25:16.549Z,23.02
2018-08-11T17:27:47.763Z,22.98
2018-08-11T17:30:18.527Z,22.95
2018-08-11T17:32:49.317Z,22.71
2018-08-11T17:35:20.090Z,22.67
2018-08-11T17:37:52.358Z,22.62
2018-08-11T17:40:23.136Z,22.60
2018-08-11T17:42:54.596Z,22.65
2018-08-11T17:45:25.398Z,22.52
2018-08-11T17:47:56.232Z,22.36
2018-08-11T17:50:27.424Z,22.22
2018-08-11T17:52:58.317Z,22.13
2018-08-11T17:55:29.604Z,21.79
2018-08-11T17:58:00.597Z,21.88
2018-08-11T18:00:31.396Z,21.90
2018-08-11T18:03:05.306Z,21.44
2018-08-11T18:05:36.108Z,21.51
2018-08-11T18:08:07.032Z,21.55
2018-08-11T18:10:37.804Z,21.42
2018-08-11T18:13:08.815Z,21.34
2018-08-11T18:15:39.655Z,21.04
2018-08-11T18:18:10.459Z,20.66
2018-08-11T18:20:41.241Z,20.67
2018-08-11T18:23:12.115Z,20.60
2018-08-11T18:25:42.934Z,20.48
2018-08-11T18:28:17.359Z,20.62
2018-08-11T18:30:52.402Z,20.64
2018-08-11T18:33:23.237Z,20.48
2018-08-11T18:35:54.032Z,20.30
2018-08-11T18:38:24.967Z,20.39
2018-08-11T18:40:55.822Z,20.28
2018-08-11T18:43:26.943Z,20.19
2018-08-11T18:45:57.856Z,20.05
2018-08-11T18:48:28.654Z,19.85
2018-08-11T18:50:59.441Z,19.66
2018-08-11T18:53:30.699Z,19.45
2018-08-11T18:56:01.890Z,19.33
2018-08-11T18:58:32.729Z,19.13
2018-08-11T19:01:03.536Z,19.13
2018-08-11T19:03:34.903Z,19.14
2018-08-11T19:06:05.781Z,18.96
2018-08-11T19:08:36.698Z,18.88
2018-08-11T19:11:07.547Z,18.72
2018-08-11T19:13:40.928Z,18.60
2018-08-11T19:16:11.739Z,18.54
2018-08-11T19:18:42.581Z,18.53
2018-08-11T19:21:13.789Z,18.45
2018-08-11T19:23:44.655Z,18.21
2018-08-11T19:26:15.421Z,18.30
2018-08-11T19:28:46.312Z,18.07
2018-08-11T19:31:17.126Z,18.05
2018-08-11T19:33:47.972Z,17.92
2018-08-11T19:36:19.561Z,17.75
2018-08-11T19:38:50.497Z,17.75
2018-08-11T19:41:21.376Z,17.76
2018-08-11T19:43:52.403Z,17.80
2018-08-11T19:46:23.353Z,17.56
2018-08-11T19:48:54.317Z,17.55
2018-08-11T19:51:25.137Z,17.87
2018-08-11T19:53:56.233Z,17.92
2018-08-11T19:56:30.506Z,17.97
2018-08-11T19:59:06.670Z,17.89
2018-08-11T20:01:42.583Z,17.86
2018-08-11T20:04:18.512Z,17.34
2018-08-11T20:06:54.466Z,17.26
2018-08-11T20:09:30.613Z,17.00
2018-08-11T20:12:07.054Z,16.97
2018-08-11T20:14:43.055Z,16.97
2018-08-11T20:17:18.880Z,16.81
2018-08-11T20:19:54.750Z,17.06
2018-08-11T20:22:30.587Z,16.64
2018-08-11T20:25:06.791Z,16.50
2018-08-11T20:27:42.685Z,16.12
2018-08-11T20:30:18.578Z,16.02
2018-08-11T20:32:54.795Z,16.15
2018-08-11T20:35:30.738Z,16.47
2018-08-11T20:38:06.854Z,16.46
2018-08-11T20:40:43.121Z,16.47
2018-08-11T20:43:18.991Z,16.39
2018-08-11T20:45:55.077Z,16.33
2018-08-11T20:48:31.472Z,16.13
2018-08-11T20:51:07.345Z,16.10
2018-08-11T20:53:43.280Z,16.19
2018-08-11T20:56:19.139Z,16.39
2018-08-11T20:58:54.945Z,16.30
2018-08-11T21:01:30.695Z,15.81
2018-08-11T21:04:06.926Z,15.45
2018-08-11T21:06:42.817Z,15.33
2018-08-11T21:09:18.968Z,15.35
2018-08-11T21:11:54.827Z,15.27
2018-08-11T21:14:30.639Z,14.90
2018-08-11T21:17:07.134Z,14.98
2018-08-11T21:19:42.879Z,14.64
2018-08-11T21:22:18.624Z,14.21
2018-08-11T21:24:54.379Z,14.04
2018-08-11T21:27:30.620Z,13.71
2018-08-11T21:30:08.595Z,13.85
2018-08-11T21:32:44.253Z,13.99
2018-08-11T21:35:20.003Z,13.89
2018-08-11T21:37:56.745Z,13.64
2018-08-11T21:40:32.917Z,13.87
2018-08-11T21:43:08.637Z,14.11
2018-08-11T21:45:44.494Z,14.39
2018-08-11T21:48:20.339Z,14.35
2018-08-11T21:50:56.036Z,14.06
2018-08-11T21:53:31.800Z,14.17
2018-08-11T21:56:07.874Z,14.51
2018-08-11T21:58:43.943Z,14.33
2018-08-11T22:01:19.734Z,14.05
2018-08-11T22:03:55.627Z,13.94
2018-08-11T22:06:31.875Z,14.12
2018-08-11T22:09:13.602Z,13.92
2018-08-11T22:11:49.365Z,13.63
2018-08-11T22:14:25.247Z,13.57
2018-08-11T22:17:01.515Z,13.34
2018-08-11T22:19:37.401Z,13.00
2018-08-11T22:22:12.990Z,12.98
2018-08-11T22:24:49.030Z,13.05
2018-08-11T22:27:24.911Z,13.12
2018-08-11T22:30:01.485Z,13.23
2018-08-11T22:32:38.349Z,13.27
2018-08-11T22:35:14.216Z,12.99
2018-08-11T22:37:50.070Z,13.03
2018-08-11T22:40:26.186Z,13.00
2018-08-11T22:43:02.074Z,12.59
2018-08-11T22:45:37.868Z,12.72
2018-08-11T22:48:13.555Z,12.69
2018-08-11T22:50:55.081Z,12.49
2018-08-11T22:53:30.826Z,12.68
2018-08-11T22:56:06.948Z,12.86
2018-08-11T22:58:42.641Z,12.85
2018-08-11T23:01:18.343Z,12.73
2018-08-11T23:03:54.252Z,12.75
2018-08-11T23:06:30.070Z,12.98
2018-08-11T23:09:07.589Z,13.29
2018-08-11T23:11:43.426Z,13.52
2018-08-11T23:14:19.181Z,13.57
2018-08-11T23:16:55.129Z,13.68
2018-08-11T23:19:30.989Z,13.76
2018-08-11T23:22:07.518Z,13.81
2018-08-11T23:24:43.142Z,13.58
2018-08-11T23:27:19.490Z,13.15
2018-08-11T23:29:55.743Z,13.00
2018-08-11T23:32:31.481Z,12.65
2018-08-11T23:35:07.753Z,12.42
2018-08-11T23:37:43.842Z,11.99
2018-08-11T23:40:19.448Z,11.86
2018-08-11T23:42:55.216Z,11.53
2018-08-11T23:45:30.988Z,11.43
2018-08-11T23:48:06.998Z,11.49
2018-08-11T23:50:42.729Z,11.05
2018-08-11T23:53:18.988Z,11.00
2018-08-11T23:55:54.657Z,11.09
2018-08-11T23:58:30.551Z,11.32
